sensor_id;sensor_type;location;lat;lon;timestamp;P1;durP1;ratioP1;P2;durP2;ratioP2
67140;SDS011;54058;52.010;5.546;2023-05-25T00:00:27;17.98;;;3.80;;
67140;SDS011;54058;52.010;5.546;2023-05-25T00:02:53;12.40;;;3.58;;
67140;SDS011;54058;52.010;5.546;2023-05-25T00:05:19;8.27;;;3.22;;
67140;SDS011;54058;52.010;5.546;2023-05-25T00:07:45;6.57;;;3.40;;
67140;SDS011;54058;52.010;5.546;2023-05-25T00:10:11;13.70;;;3.78;;
67140;SDS011;54058;52.010;5.546;2023-05-25T00:12:37;10.55;;;3.35;;
67140;SDS011;54058;52.010;5.546;2023-05-25T00:15:06;7.88;;;3.33;;
67140;SDS011;54058;52.010;5.546;2023-05-25T00:17:32;10.93;;;3.28;;
67140;SDS011;54058;52.010;5.546;2023-05-25T00:20:00;11.90;;;3.58;;
67140;SDS011;54058;52.010;5.546;2023-05-25T00:22:34;13.88;;;3.95;;
67140;SDS011;54058;52.010;5.546;2023-05-25T00:25:03;10.93;;;3.38;;
67140;SDS011;54058;52.010;5.546;2023-05-25T00:27:30;11.38;;;3.55;;
67140;SDS011;54058;52.010;5.546;2023-05-25T00:29:56;10.32;;;4.00;;
67140;SDS011;54058;52.010;5.546;2023-05-25T00:32:21;14.85;;;3.72;;
67140;SDS011;54058;52.010;5.546;2023-05-25T00:34:47;11.38;;;3.60;;
67140;SDS011;54058;52.010;5.546;2023-05-25T00:37:13;10.13;;;3.75;;
67140;SDS011;54058;52.010;5.546;2023-05-25T00:39:39;9.13;;;3.70;;
67140;SDS011;54058;52.010;5.546;2023-05-25T00:42:04;15.60;;;4.57;;
67140;SDS011;54058;52.010;5.546;2023-05-25T00:44:31;14.63;;;4.03;;
67140;SDS011;54058;52.010;5.546;2023-05-25T00:46:58;13.87;;;3.47;;
67140;SDS011;54058;52.010;5.546;2023-05-25T00:51:58;11.27;;;3.65;;
67140;SDS011;54058;52.010;5.546;2023-05-25T00:54:24;11.77;;;3.60;;
67140;SDS011;54058;52.010;5.546;2023-05-25T00:57:00;12.35;;;3.42;;
67140;SDS011;54058;52.010;5.546;2023-05-25T00:59:37;13.07;;;3.67;;
67140;SDS011;54058;52.010;5.546;2023-05-25T01:02:06;12.43;;;4.10;;
67140;SDS011;54058;52.010;5.546;2023-05-25T01:04:35;8.50;;;3.90;;
67140;SDS011;54058;52.010;5.546;2023-05-25T01:07:03;12.35;;;3.85;;
67140;SDS011;54058;52.010;5.546;2023-05-25T01:09:32;17.15;;;3.63;;
67140;SDS011;54058;52.010;5.546;2023-05-25T01:11:59;8.90;;;3.60;;
67140;SDS011;54058;52.010;5.546;2023-05-25T01:14:26;8.32;;;3.33;;
67140;SDS011;54058;52.010;5.546;2023-05-25T01:16:52;16.98;;;3.40;;
67140;SDS011;54058;52.010;5.546;2023-05-25T01:19:20;11.02;;;4.50;;
67140;SDS011;54058;52.010;5.546;2023-05-25T01:21:50;11.10;;;3.90;;
67140;SDS011;54058;52.010;5.546;2023-05-25T01:25:15;12.82;;;3.50;;
67140;SDS011;54058;52.010;5.546;2023-05-25T01:27:38;19.52;;;3.38;;
67140;SDS011;54058;52.010;5.546;2023-05-25T01:30:11;5.78;;;3.10;;
67140;SDS011;54058;52.010;5.546;2023-05-25T01:32:39;8.07;;;3.05;;
67140;SDS011;54058;52.010;5.546;2023-05-25T01:35:06;11.00;;;4.10;;
67140;SDS011;54058;52.010;5.546;2023-05-25T01:37:34;9.75;;;3.00;;
67140;SDS011;54058;52.010;5.546;2023-05-25T01:40:02;8.73;;;3.22;;
67140;SDS011;54058;52.010;5.546;2023-05-25T01:42:29;12.80;;;3.70;;
67140;SDS011;54058;52.010;5.546;2023-05-25T01:44:55;9.60;;;3.17;;
67140;SDS011;54058;52.010;5.546;2023-05-25T01:50:01;8.98;;;3.90;;
67140;SDS011;54058;52.010;5.546;2023-05-25T01:52:35;13.98;;;3.97;;
67140;SDS011;54058;52.010;5.546;2023-05-25T01:55:05;8.65;;;3.90;;
67140;SDS011;54058;52.010;5.546;2023-05-25T01:57:36;9.93;;;3.20;;
67140;SDS011;54058;52.010;5.546;2023-05-25T02:00:05;11.02;;;3.17;;
67140;SDS011;54058;52.010;5.546;2023-05-25T02:02:33;11.10;;;3.80;;
67140;SDS011;54058;52.010;5.546;2023-05-25T02:05:00;9.13;;;3.30;;
67140;SDS011;54058;52.010;5.546;2023-05-25T02:07:26;6.17;;;3.27;;
67140;SDS011;54058;52.010;5.546;2023-05-25T02:09:52;9.43;;;3.17;;
67140;SDS011;54058;52.010;5.546;2023-05-25T02:12:18;7.93;;;3.40;;
67140;SDS011;54058;52.010;5.546;2023-05-25T02:14:43;8.43;;;3.10;;
67140;SDS011;54058;52.010;5.546;2023-05-25T02:17:12;8.85;;;3.55;;
67140;SDS011;54058;52.010;5.546;2023-05-25T02:19:38;7.45;;;3.15;;
67140;SDS011;54058;52.010;5.546;2023-05-25T02:22:03;7.00;;;3.15;;
67140;SDS011;54058;52.010;5.546;2023-05-25T02:24:29;5.43;;;3.30;;
67140;SDS011;54058;52.010;5.546;2023-05-25T02:26:55;6.35;;;3.13;;
67140;SDS011;54058;52.010;5.546;2023-05-25T02:29:20;6.47;;;2.88;;
67140;SDS011;54058;52.010;5.546;2023-05-25T02:31:46;10.57;;;4.03;;
67140;SDS011;54058;52.010;5.546;2023-05-25T02:34:12;9.05;;;3.03;;
67140;SDS011;54058;52.010;5.546;2023-05-25T02:36:37;7.20;;;3.47;;
67140;SDS011;54058;52.010;5.546;2023-05-25T02:39:07;5.43;;;2.78;;
67140;SDS011;54058;52.010;5.546;2023-05-25T02:41:33;9.73;;;3.70;;
67140;SDS011;54058;52.010;5.546;2023-05-25T02:43:58;10.68;;;3.65;;
67140;SDS011;54058;52.010;5.546;2023-05-25T02:46:24;11.73;;;3.65;;
67140;SDS011;54058;52.010;5.546;2023-05-25T02:48:50;8.50;;;2.92;;
67140;SDS011;54058;52.010;5.546;2023-05-25T02:51:15;6.57;;;3.30;;
67140;SDS011;54058;52.010;5.546;2023-05-25T02:53:41;7.95;;;3.08;;
67140;SDS011;54058;52.010;5.546;2023-05-25T02:56:07;7.85;;;3.30;;
67140;SDS011;54058;52.010;5.546;2023-05-25T02:58:34;4.15;;;2.63;;
67140;SDS011;54058;52.010;5.546;2023-05-25T03:01:01;7.70;;;2.88;;
67140;SDS011;54058;52.010;5.546;2023-05-25T03:03:29;9.35;;;4.15;;
67140;SDS011;54058;52.010;5.546;2023-05-25T03:05:54;8.75;;;3.20;;
67140;SDS011;54058;52.010;5.546;2023-05-25T03:08:21;7.75;;;3.75;;
67140;SDS011;54058;52.010;5.546;2023-05-25T03:10:47;9.80;;;3.17;;
67140;SDS011;54058;52.010;5.546;2023-05-25T03:13:12;6.97;;;3.40;;
67140;SDS011;54058;52.010;5.546;2023-05-25T03:15:38;7.55;;;3.42;;
67140;SDS011;54058;52.010;5.546;2023-05-25T03:18:04;8.07;;;3.20;;
67140;SDS011;54058;52.010;5.546;2023-05-25T03:20:30;8.45;;;3.45;;
67140;SDS011;54058;52.010;5.546;2023-05-25T03:22:56;6.60;;;2.80;;
67140;SDS011;54058;52.010;5.546;2023-05-25T03:25:22;5.82;;;3.20;;
67140;SDS011;54058;52.010;5.546;2023-05-25T03:27:51;7.70;;;3.53;;
67140;SDS011;54058;52.010;5.546;2023-05-25T03:30:18;5.47;;;3.15;;
67140;SDS011;54058;52.010;5.546;2023-05-25T03:32:45;8.32;;;3.42;;
67140;SDS011;54058;52.010;5.546;2023-05-25T03:35:10;6.20;;;3.30;;
67140;SDS011;54058;52.010;5.546;2023-05-25T03:37:36;11.85;;;3.90;;
67140;SDS011;54058;52.010;5.546;2023-05-25T03:40:01;8.90;;;3.45;;
67140;SDS011;54058;52.010;5.546;2023-05-25T03:42:28;4.80;;;3.17;;
67140;SDS011;54058;52.010;5.546;2023-05-25T03:44:54;10.57;;;3.50;;
67140;SDS011;54058;52.010;5.546;2023-05-25T03:47:19;8.07;;;3.53;;
67140;SDS011;54058;52.010;5.546;2023-05-25T03:49:45;7.38;;;3.25;;
67140;SDS011;54058;52.010;5.546;2023-05-25T03:52:10;5.63;;;3.30;;
67140;SDS011;54058;52.010;5.546;2023-05-25T03:54:36;8.98;;;3.30;;
67140;SDS011;54058;52.010;5.546;2023-05-25T03:57:01;8.35;;;3.53;;
67140;SDS011;54058;52.010;5.546;2023-05-25T03:59:28;10.05;;;3.03;;
67140;SDS011;54058;52.010;5.546;2023-05-25T04:01:53;9.45;;;3.88;;
67140;SDS011;54058;52.010;5.546;2023-05-25T04:04:19;7.03;;;3.65;;
67140;SDS011;54058;52.010;5.546;2023-05-25T04:06:45;9.02;;;3.88;;
67140;SDS011;54058;52.010;5.546;2023-05-25T04:09:12;11.73;;;3.10;;
67140;SDS011;54058;52.010;5.546;2023-05-25T04:11:38;5.18;;;3.00;;
67140;SDS011;54058;52.010;5.546;2023-05-25T04:14:04;4.95;;;2.70;;
67140;SDS011;54058;52.010;5.546;2023-05-25T04:16:30;6.63;;;3.00;;
67140;SDS011;54058;52.010;5.546;2023-05-25T04:18:55;7.43;;;3.65;;
67140;SDS011;54058;52.010;5.546;2023-05-25T04:21:21;9.18;;;3.58;;
67140;SDS011;54058;52.010;5.546;2023-05-25T04:23:46;5.00;;;2.72;;
67140;SDS011;54058;52.010;5.546;2023-05-25T04:26:12;8.43;;;3.45;;
67140;SDS011;54058;52.010;5.546;2023-05-25T04:28:39;11.13;;;2.90;;
67140;SDS011;54058;52.010;5.546;2023-05-25T04:31:05;6.18;;;3.22;;
67140;SDS011;54058;52.010;5.546;2023-05-25T04:33:32;9.05;;;3.20;;
67140;SDS011;54058;52.010;5.546;2023-05-25T04:35:58;7.50;;;3.43;;
67140;SDS011;54058;52.010;5.546;2023-05-25T04:38:24;4.75;;;2.78;;
67140;SDS011;54058;52.010;5.546;2023-05-25T04:40:50;4.63;;;2.90;;
67140;SDS011;54058;52.010;5.546;2023-05-25T04:43:18;5.13;;;3.35;;
67140;SDS011;54058;52.010;5.546;2023-05-25T04:45:44;4.30;;;3.17;;
67140;SDS011;54058;52.010;5.546;2023-05-25T04:48:11;6.95;;;3.15;;
67140;SDS011;54058;52.010;5.546;2023-05-25T04:50:39;7.63;;;3.40;;
67140;SDS011;54058;52.010;5.546;2023-05-25T04:53:05;7.65;;;3.50;;
67140;SDS011;54058;52.010;5.546;2023-05-25T04:55:31;9.15;;;3.08;;
67140;SDS011;54058;52.010;5.546;2023-05-25T04:57:56;12.40;;;3.55;;
67140;SDS011;54058;52.010;5.546;2023-05-25T05:00:22;6.22;;;3.03;;
67140;SDS011;54058;52.010;5.546;2023-05-25T05:02:49;8.40;;;3.38;;
67140;SDS011;54058;52.010;5.546;2023-05-25T05:05:15;6.57;;;3.08;;
67140;SDS011;54058;52.010;5.546;2023-05-25T05:07:41;10.30;;;4.18;;
67140;SDS011;54058;52.010;5.546;2023-05-25T05:10:07;15.45;;;4.72;;
67140;SDS011;54058;52.010;5.546;2023-05-25T05:12:34;6.23;;;3.40;;
67140;SDS011;54058;52.010;5.546;2023-05-25T05:14:59;10.75;;;3.92;;
67140;SDS011;54058;52.010;5.546;2023-05-25T05:17:25;16.17;;;4.70;;
67140;SDS011;54058;52.010;5.546;2023-05-25T05:19:52;11.18;;;4.45;;
67140;SDS011;54058;52.010;5.546;2023-05-25T05:22:17;21.33;;;4.25;;
67140;SDS011;54058;52.010;5.546;2023-05-25T05:24:43;13.20;;;4.40;;
67140;SDS011;54058;52.010;5.546;2023-05-25T05:27:09;12.05;;;4.55;;
67140;SDS011;54058;52.010;5.546;2023-05-25T05:29:37;14.25;;;4.47;;
67140;SDS011;54058;52.010;5.546;2023-05-25T05:32:03;14.85;;;4.20;;
67140;SDS011;54058;52.010;5.546;2023-05-25T05:34:29;9.63;;;4.28;;
67140;SDS011;54058;52.010;5.546;2023-05-25T05:36:55;13.82;;;4.43;;
67140;SDS011;54058;52.010;5.546;2023-05-25T05:39:21;13.48;;;4.18;;
67140;SDS011;54058;52.010;5.546;2023-05-25T05:41:46;17.55;;;5.72;;
67140;SDS011;54058;52.010;5.546;2023-05-25T05:44:12;12.75;;;4.43;;
67140;SDS011;54058;52.010;5.546;2023-05-25T05:46:38;10.80;;;4.35;;
67140;SDS011;54058;52.010;5.546;2023-05-25T05:49:03;16.58;;;4.88;;
67140;SDS011;54058;52.010;5.546;2023-05-25T05:51:29;21.50;;;6.03;;
67140;SDS011;54058;52.010;5.546;2023-05-25T05:53:55;17.98;;;4.78;;
67140;SDS011;54058;52.010;5.546;2023-05-25T05:56:20;11.88;;;4.60;;
67140;SDS011;54058;52.010;5.546;2023-05-25T05:58:46;14.27;;;4.80;;
67140;SDS011;54058;52.010;5.546;2023-05-25T06:01:14;11.60;;;4.18;;
67140;SDS011;54058;52.010;5.546;2023-05-25T06:03:41;31.60;;;4.97;;
67140;SDS011;54058;52.010;5.546;2023-05-25T06:06:07;14.40;;;4.70;;
67140;SDS011;54058;52.010;5.546;2023-05-25T06:08:32;18.85;;;4.70;;
67140;SDS011;54058;52.010;5.546;2023-05-25T06:10:58;18.88;;;5.05;;
67140;SDS011;54058;52.010;5.546;2023-05-25T06:13:23;19.13;;;4.45;;
67140;SDS011;54058;52.010;5.546;2023-05-25T06:15:49;20.42;;;4.70;;
67140;SDS011;54058;52.010;5.546;2023-05-25T06:18:15;14.13;;;4.63;;
67140;SDS011;54058;52.010;5.546;2023-05-25T06:20:40;15.48;;;4.65;;
67140;SDS011;54058;52.010;5.546;2023-05-25T06:23:06;16.45;;;5.70;;
67140;SDS011;54058;52.010;5.546;2023-05-25T06:25:35;10.73;;;4.95;;
67140;SDS011;54058;52.010;5.546;2023-05-25T06:28:00;14.68;;;4.35;;
67140;SDS011;54058;52.010;5.546;2023-05-25T06:30:26;10.82;;;4.63;;
67140;SDS011;54058;52.010;5.546;2023-05-25T06:32:52;13.10;;;4.50;;
67140;SDS011;54058;52.010;5.546;2023-05-25T06:35:17;18.10;;;4.57;;
67140;SDS011;54058;52.010;5.546;2023-05-25T06:37:46;12.52;;;4.50;;
67140;SDS011;54058;52.010;5.546;2023-05-25T06:40:12;18.75;;;5.22;;
67140;SDS011;54058;52.010;5.546;2023-05-25T06:42:39;17.38;;;4.40;;
67140;SDS011;54058;52.010;5.546;2023-05-25T06:45:05;12.85;;;4.53;;
67140;SDS011;54058;52.010;5.546;2023-05-25T06:47:32;16.25;;;4.82;;
67140;SDS011;54058;52.010;5.546;2023-05-25T06:49:58;13.77;;;4.88;;
67140;SDS011;54058;52.010;5.546;2023-05-25T06:52:24;12.70;;;4.38;;
67140;SDS011;54058;52.010;5.546;2023-05-25T06:54:52;14.20;;;4.50;;
67140;SDS011;54058;52.010;5.546;2023-05-25T06:57:18;15.25;;;4.60;;
67140;SDS011;54058;52.010;5.546;2023-05-25T06:59:44;19.60;;;4.82;;
67140;SDS011;54058;52.010;5.546;2023-05-25T07:02:09;17.70;;;4.95;;
67140;SDS011;54058;52.010;5.546;2023-05-25T07:04:35;19.77;;;3.92;;
67140;SDS011;54058;52.010;5.546;2023-05-25T07:07:02;13.40;;;4.28;;
67140;SDS011;54058;52.010;5.546;2023-05-25T07:09:27;15.23;;;4.70;;
67140;SDS011;54058;52.010;5.546;2023-05-25T07:11:53;16.25;;;4.75;;
67140;SDS011;54058;52.010;5.546;2023-05-25T07:14:18;15.25;;;5.00;;
67140;SDS011;54058;52.010;5.546;2023-05-25T07:16:44;14.82;;;4.80;;
67140;SDS011;54058;52.010;5.546;2023-05-25T07:19:10;17.77;;;5.00;;
67140;SDS011;54058;52.010;5.546;2023-05-25T07:21:36;20.88;;;5.45;;
67140;SDS011;54058;52.010;5.546;2023-05-25T07:24:02;18.63;;;4.78;;
67140;SDS011;54058;52.010;5.546;2023-05-25T07:26:31;19.35;;;4.53;;
67140;SDS011;54058;52.010;5.546;2023-05-25T07:28:58;13.20;;;4.63;;
67140;SDS011;54058;52.010;5.546;2023-05-25T07:31:23;15.68;;;4.93;;
67140;SDS011;54058;52.010;5.546;2023-05-25T07:33:49;20.80;;;5.70;;
67140;SDS011;54058;52.010;5.546;2023-05-25T07:36:15;19.08;;;4.78;;
67140;SDS011;54058;52.010;5.546;2023-05-25T07:38:41;14.40;;;4.07;;
67140;SDS011;54058;52.010;5.546;2023-05-25T07:41:07;16.88;;;5.43;;
67140;SDS011;54058;52.010;5.546;2023-05-25T07:43:33;17.23;;;4.43;;
67140;SDS011;54058;52.010;5.546;2023-05-25T07:45:58;18.58;;;5.57;;
67140;SDS011;54058;52.010;5.546;2023-05-25T07:48:26;12.07;;;4.68;;
67140;SDS011;54058;52.010;5.546;2023-05-25T07:50:52;18.83;;;4.63;;
67140;SDS011;54058;52.010;5.546;2023-05-25T07:53:17;20.08;;;5.18;;
67140;SDS011;54058;52.010;5.546;2023-05-25T07:55:43;15.05;;;4.53;;
67140;SDS011;54058;52.010;5.546;2023-05-25T07:58:09;20.00;;;5.03;;
67140;SDS011;54058;52.010;5.546;2023-05-25T08:00:35;15.93;;;5.53;;
67140;SDS011;54058;52.010;5.546;2023-05-25T08:03:00;12.15;;;4.82;;
67140;SDS011;54058;52.010;5.546;2023-05-25T08:05:26;15.00;;;4.55;;
67140;SDS011;54058;52.010;5.546;2023-05-25T08:07:52;13.00;;;4.57;;
67140;SDS011;54058;52.010;5.546;2023-05-25T08:10:18;20.77;;;5.53;;
67140;SDS011;54058;52.010;5.546;2023-05-25T08:12:44;15.32;;;5.10;;
67140;SDS011;54058;52.010;5.546;2023-05-25T08:15:10;12.27;;;4.32;;
67140;SDS011;54058;52.010;5.546;2023-05-25T08:20:03;12.70;;;4.43;;
67140;SDS011;54058;52.010;5.546;2023-05-25T08:22:30;15.10;;;5.15;;
67140;SDS011;54058;52.010;5.546;2023-05-25T08:24:56;17.02;;;4.60;;
67140;SDS011;54058;52.010;5.546;2023-05-25T08:27:21;16.85;;;4.55;;
67140;SDS011;54058;52.010;5.546;2023-05-25T08:29:47;14.02;;;4.90;;
67140;SDS011;54058;52.010;5.546;2023-05-25T08:32:12;13.63;;;4.60;;
67140;SDS011;54058;52.010;5.546;2023-05-25T08:34:38;14.90;;;3.83;;
67140;SDS011;54058;52.010;5.546;2023-05-25T08:37:03;17.17;;;4.38;;
67140;SDS011;54058;52.010;5.546;2023-05-25T08:39:29;13.52;;;4.20;;
67140;SDS011;54058;52.010;5.546;2023-05-25T08:41:55;16.77;;;4.28;;
67140;SDS011;54058;52.010;5.546;2023-05-25T08:44:20;12.02;;;3.60;;
67140;SDS011;54058;52.010;5.546;2023-05-25T08:46:47;13.65;;;3.83;;
67140;SDS011;54058;52.010;5.546;2023-05-25T08:49:16;15.50;;;4.43;;
67140;SDS011;54058;52.010;5.546;2023-05-25T08:51:48;13.93;;;4.82;;
67140;SDS011;54058;52.010;5.546;2023-05-25T08:54:19;14.77;;;4.78;;
67140;SDS011;54058;52.010;5.546;2023-05-25T08:56:51;15.15;;;4.18;;
67140;SDS011;54058;52.010;5.546;2023-05-25T09:04:49;12.85;;;3.80;;
67140;SDS011;54058;52.010;5.546;2023-05-25T09:07:14;14.30;;;3.63;;
67140;SDS011;54058;52.010;5.546;2023-05-25T09:09:40;12.27;;;3.35;;
67140;SDS011;54058;52.010;5.546;2023-05-25T09:12:07;18.42;;;3.95;;
67140;SDS011;54058;52.010;5.546;2023-05-25T09:14:33;15.90;;;3.65;;
67140;SDS011;54058;52.010;5.546;2023-05-25T09:17:01;20.60;;;3.53;;
67140;SDS011;54058;52.010;5.546;2023-05-25T09:19:27;12.50;;;3.33;;
67140;SDS011;54058;52.010;5.546;2023-05-25T09:21:53;8.23;;;3.08;;
67140;SDS011;54058;52.010;5.546;2023-05-25T09:24:18;12.57;;;3.15;;
67140;SDS011;54058;52.010;5.546;2023-05-25T09:26:46;12.38;;;3.72;;
67140;SDS011;54058;52.010;5.546;2023-05-25T09:29:13;12.63;;;3.42;;
67140;SDS011;54058;52.010;5.546;2023-05-25T09:34:13;11.45;;;3.10;;
67140;SDS011;54058;52.010;5.546;2023-05-25T09:36:41;10.40;;;3.05;;
67140;SDS011;54058;52.010;5.546;2023-05-25T09:39:10;16.13;;;3.75;;
67140;SDS011;54058;52.010;5.546;2023-05-25T09:41:39;13.85;;;3.45;;
67140;SDS011;54058;52.010;5.546;2023-05-25T09:44:05;18.13;;;3.90;;
67140;SDS011;54058;52.010;5.546;2023-05-25T09:46:31;10.17;;;3.43;;
67140;SDS011;54058;52.010;5.546;2023-05-25T09:49:03;9.07;;;2.78;;
67140;SDS011;54058;52.010;5.546;2023-05-25T09:51:32;10.70;;;3.50;;
67140;SDS011;54058;52.010;5.546;2023-05-25T09:54:07;14.63;;;4.07;;
67140;SDS011;54058;52.010;5.546;2023-05-25T09:56:34;12.75;;;3.42;;
67140;SDS011;54058;52.010;5.546;2023-05-25T09:59:00;15.07;;;3.73;;
67140;SDS011;54058;52.010;5.546;2023-05-25T10:01:25;6.80;;;3.17;;
67140;SDS011;54058;52.010;5.546;2023-05-25T10:06:20;14.27;;;3.78;;
67140;SDS011;54058;52.010;5.546;2023-05-25T10:08:56;16.35;;;3.60;;
67140;SDS011;54058;52.010;5.546;2023-05-25T10:11:23;16.60;;;3.97;;
67140;SDS011;54058;52.010;5.546;2023-05-25T10:13:53;11.73;;;3.67;;
67140;SDS011;54058;52.010;5.546;2023-05-25T10:16:24;11.25;;;4.15;;
67140;SDS011;54058;52.010;5.546;2023-05-25T10:18:54;9.95;;;3.90;;
67140;SDS011;54058;52.010;5.546;2023-05-25T10:21:30;9.77;;;3.50;;
67140;SDS011;54058;52.010;5.546;2023-05-25T10:26:43;6.15;;;3.03;;
67140;SDS011;54058;52.010;5.546;2023-05-25T10:29:12;6.97;;;2.88;;
67140;SDS011;54058;52.010;5.546;2023-05-25T10:31:38;11.80;;;3.40;;
67140;SDS011;54058;52.010;5.546;2023-05-25T10:34:04;14.13;;;3.30;;
67140;SDS011;54058;52.010;5.546;2023-05-25T10:36:30;15.85;;;3.80;;
67140;SDS011;54058;52.010;5.546;2023-05-25T10:38:58;11.20;;;3.13;;
67140;SDS011;54058;52.010;5.546;2023-05-25T10:41:26;8.73;;;3.20;;
67140;SDS011;54058;52.010;5.546;2023-05-25T10:43:52;7.90;;;3.30;;
67140;SDS011;54058;52.010;5.546;2023-05-25T10:46:19;11.48;;;3.00;;
67140;SDS011;54058;52.010;5.546;2023-05-25T10:48:46;11.65;;;3.28;;
67140;SDS011;54058;52.010;5.546;2023-05-25T10:51:18;11.52;;;3.00;;
67140;SDS011;54058;52.010;5.546;2023-05-25T10:53:45;11.10;;;2.92;;
67140;SDS011;54058;52.010;5.546;2023-05-25T10:56:14;6.80;;;2.72;;
67140;SDS011;54058;52.010;5.546;2023-05-25T10:58:41;5.80;;;2.83;;
67140;SDS011;54058;52.010;5.546;2023-05-25T11:01:11;8.35;;;3.35;;
67140;SDS011;54058;52.010;5.546;2023-05-25T11:06:16;7.60;;;2.70;;
67140;SDS011;54058;52.010;5.546;2023-05-25T11:08:49;6.72;;;2.58;;
67140;SDS011;54058;52.010;5.546;2023-05-25T11:14:52;5.50;;;2.63;;
67140;SDS011;54058;52.010;5.546;2023-05-25T11:17:13;5.82;;;2.53;;
67140;SDS011;54058;52.010;5.546;2023-05-25T11:19:47;9.18;;;3.08;;
67140;SDS011;54058;52.010;5.546;2023-05-25T11:22:15;13.57;;;3.00;;
67140;SDS011;54058;52.010;5.546;2023-05-25T11:24:55;8.77;;;2.75;;
67140;SDS011;54058;52.010;5.546;2023-05-25T11:27:30;9.15;;;3.00;;
67140;SDS011;54058;52.010;5.546;2023-05-25T11:29:57;8.82;;;2.92;;
67140;SDS011;54058;52.010;5.546;2023-05-25T11:32:24;7.93;;;2.47;;
67140;SDS011;54058;52.010;5.546;2023-05-25T11:34:51;8.82;;;2.67;;
67140;SDS011;54058;52.010;5.546;2023-05-25T11:37:18;9.23;;;2.55;;
67140;SDS011;54058;52.010;5.546;2023-05-25T11:39:55;10.77;;;2.97;;
67140;SDS011;54058;52.010;5.546;2023-05-25T11:42:21;11.55;;;3.30;;
67140;SDS011;54058;52.010;5.546;2023-05-25T11:44:48;6.18;;;2.65;;
67140;SDS011;54058;52.010;5.546;2023-05-25T11:47:14;5.25;;;2.28;;
67140;SDS011;54058;52.010;5.546;2023-05-25T11:49:44;6.82;;;2.88;;
67140;SDS011;54058;52.010;5.546;2023-05-25T11:52:17;13.65;;;2.13;;
67140;SDS011;54058;52.010;5.546;2023-05-25T11:54:44;8.73;;;2.88;;
67140;SDS011;54058;52.010;5.546;2023-05-25T11:59:45;7.65;;;2.78;;
67140;SDS011;54058;52.010;5.546;2023-05-25T12:02:13;12.95;;;3.20;;
67140;SDS011;54058;52.010;5.546;2023-05-25T12:04:39;8.70;;;3.10;;
67140;SDS011;54058;52.010;5.546;2023-05-25T12:07:06;11.85;;;3.33;;
67140;SDS011;54058;52.010;5.546;2023-05-25T12:09:32;9.10;;;3.10;;
67140;SDS011;54058;52.010;5.546;2023-05-25T12:11:59;10.48;;;3.10;;
67140;SDS011;54058;52.010;5.546;2023-05-25T12:14:26;9.00;;;3.10;;
67140;SDS011;54058;52.010;5.546;2023-05-25T12:16:52;7.60;;;3.27;;
67140;SDS011;54058;52.010;5.546;2023-05-25T12:19:19;13.73;;;2.60;;
67140;SDS011;54058;52.010;5.546;2023-05-25T12:21:45;10.60;;;2.83;;
67140;SDS011;54058;52.010;5.546;2023-05-25T12:24:15;14.30;;;3.33;;
67140;SDS011;54058;52.010;5.546;2023-05-25T12:26:51;12.20;;;3.70;;
67140;SDS011;54058;52.010;5.546;2023-05-25T12:29:26;12.65;;;3.22;;
67140;SDS011;54058;52.010;5.546;2023-05-25T12:32:00;8.50;;;3.13;;
67140;SDS011;54058;52.010;5.546;2023-05-25T12:34:27;7.75;;;2.70;;
67140;SDS011;54058;52.010;5.546;2023-05-25T12:36:54;8.67;;;2.40;;
67140;SDS011;54058;52.010;5.546;2023-05-25T12:41:55;8.38;;;2.95;;
67140;SDS011;54058;52.010;5.546;2023-05-25T12:46:55;14.48;;;3.25;;
67140;SDS011;54058;52.010;5.546;2023-05-25T12:49:29;9.15;;;3.33;;
67140;SDS011;54058;52.010;5.546;2023-05-25T12:51:56;11.02;;;3.05;;
67140;SDS011;54058;52.010;5.546;2023-05-25T12:57:05;12.88;;;2.83;;
67140;SDS011;54058;52.010;5.546;2023-05-25T12:59:32;14.80;;;3.63;;
67140;SDS011;54058;52.010;5.546;2023-05-25T13:02:01;10.30;;;3.05;;
67140;SDS011;54058;52.010;5.546;2023-05-25T13:04:28;12.52;;;2.83;;
67140;SDS011;54058;52.010;5.546;2023-05-25T13:06:54;12.93;;;3.20;;
67140;SDS011;54058;52.010;5.546;2023-05-25T13:09:23;12.93;;;3.30;;
67140;SDS011;54058;52.010;5.546;2023-05-25T13:11:53;10.25;;;2.50;;
67140;SDS011;54058;52.010;5.546;2023-05-25T13:16:46;14.88;;;3.75;;
67140;SDS011;54058;52.010;5.546;2023-05-25T13:19:12;12.07;;;3.20;;
67140;SDS011;54058;52.010;5.546;2023-05-25T13:21:37;13.30;;;2.80;;
67140;SDS011;54058;52.010;5.546;2023-05-25T13:24:04;14.57;;;3.60;;
67140;SDS011;54058;52.010;5.546;2023-05-25T13:26:29;10.57;;;2.97;;
67140;SDS011;54058;52.010;5.546;2023-05-25T13:28:55;14.03;;;3.30;;
67140;SDS011;54058;52.010;5.546;2023-05-25T13:31:20;9.10;;;2.97;;
67140;SDS011;54058;52.010;5.546;2023-05-25T13:33:49;11.27;;;3.27;;
67140;SDS011;54058;52.010;5.546;2023-05-25T13:36:15;10.95;;;3.00;;
67140;SDS011;54058;52.010;5.546;2023-05-25T13:38:41;14.67;;;3.37;;
67140;SDS011;54058;52.010;5.546;2023-05-25T13:41:07;10.97;;;3.03;;
67140;SDS011;54058;52.010;5.546;2023-05-25T13:43:33;11.47;;;2.77;;
67140;SDS011;54058;52.010;5.546;2023-05-25T13:45:58;11.03;;;3.00;;
67140;SDS011;54058;52.010;5.546;2023-05-25T13:48:24;14.07;;;3.13;;
67140;SDS011;54058;52.010;5.546;2023-05-25T13:50:50;9.82;;;2.33;;
67140;SDS011;54058;52.010;5.546;2023-05-25T13:53:15;14.17;;;3.00;;
67140;SDS011;54058;52.010;5.546;2023-05-25T13:55:41;12.83;;;3.10;;
67140;SDS011;54058;52.010;5.546;2023-05-25T13:58:07;12.35;;;2.97;;
67140;SDS011;54058;52.010;5.546;2023-05-25T14:00:33;12.37;;;3.23;;
67140;SDS011;54058;52.010;5.546;2023-05-25T14:03:00;11.90;;;3.45;;
67140;SDS011;54058;52.010;5.546;2023-05-25T14:05:26;11.30;;;2.95;;
67140;SDS011;54058;52.010;5.546;2023-05-25T14:07:52;12.60;;;3.30;;
67140;SDS011;54058;52.010;5.546;2023-05-25T14:10:18;15.90;;;3.33;;
67140;SDS011;54058;52.010;5.546;2023-05-25T14:12:44;11.57;;;3.30;;
67140;SDS011;54058;52.010;5.546;2023-05-25T14:15:09;20.00;;;3.83;;
67140;SDS011;54058;52.010;5.546;2023-05-25T14:17:35;18.23;;;3.83;;
67140;SDS011;54058;52.010;5.546;2023-05-25T14:20:01;16.85;;;3.20;;
67140;SDS011;54058;52.010;5.546;2023-05-25T14:22:30;12.45;;;3.08;;
67140;SDS011;54058;52.010;5.546;2023-05-25T14:24:56;15.60;;;3.53;;
67140;SDS011;54058;52.010;5.546;2023-05-25T14:27:22;19.73;;;4.40;;
67140;SDS011;54058;52.010;5.546;2023-05-25T14:29:48;16.80;;;4.10;;
67140;SDS011;54058;52.010;5.546;2023-05-25T14:32:14;14.77;;;3.15;;
67140;SDS011;54058;52.010;5.546;2023-05-25T14:34:41;17.17;;;4.07;;
67140;SDS011;54058;52.010;5.546;2023-05-25T14:37:07;14.55;;;3.05;;
67140;SDS011;54058;52.010;5.546;2023-05-25T14:39:32;21.37;;;3.87;;
67140;SDS011;54058;52.010;5.546;2023-05-25T14:42:00;15.75;;;3.95;;
67140;SDS011;54058;52.010;5.546;2023-05-25T14:44:26;15.05;;;3.75;;
67140;SDS011;54058;52.010;5.546;2023-05-25T14:46:52;17.30;;;4.22;;
67140;SDS011;54058;52.010;5.546;2023-05-25T14:49:18;13.90;;;3.80;;
67140;SDS011;54058;52.010;5.546;2023-05-25T14:51:45;21.50;;;4.10;;
67140;SDS011;54058;52.010;5.546;2023-05-25T14:54:10;16.60;;;3.73;;
67140;SDS011;54058;52.010;5.546;2023-05-25T14:56:37;18.27;;;3.92;;
67140;SDS011;54058;52.010;5.546;2023-05-25T14:59:03;19.50;;;3.83;;
67140;SDS011;54058;52.010;5.546;2023-05-25T15:01:28;18.50;;;4.53;;
67140;SDS011;54058;52.010;5.546;2023-05-25T15:03:54;17.40;;;3.78;;
67140;SDS011;54058;52.010;5.546;2023-05-25T15:06:20;11.93;;;3.73;;
67140;SDS011;54058;52.010;5.546;2023-05-25T15:08:45;21.13;;;4.50;;
67140;SDS011;54058;52.010;5.546;2023-05-25T15:11:11;18.70;;;4.63;;
67140;SDS011;54058;52.010;5.546;2023-05-25T15:13:37;18.35;;;4.18;;
67140;SDS011;54058;52.010;5.546;2023-05-25T15:16:04;21.17;;;4.20;;